sensor_id;sensor_type;location;lat;lon;timestamp;P1;durP1;ratioP1;P2;durP2;ratioP2
25948;SDS011;13961;51.178;4.448;2024-03-22T00:01:43;62.10;;;34.65;;
25948;SDS011;13961;51.178;4.448;2024-03-22T00:04:10;58.00;;;34.50;;
25948;SDS011;13961;51.178;4.448;2024-03-22T00:06:36;58.40;;;34.33;;
25948;SDS011;13961;51.178;4.448;2024-03-22T00:09:01;60.20;;;34.13;;
25948;SDS011;13961;51.178;4.448;2024-03-22T00:11:27;56.22;;;33.08;;
25948;SDS011;13961;51.178;4.448;2024-03-22T00:13:53;64.35;;;34.58;;
25948;SDS011;13961;51.178;4.448;2024-03-22T00:16:19;56.47;;;32.78;;
25948;SDS011;13961;51.178;4.448;2024-03-22T00:18:45;55.67;;;31.58;;
25948;SDS011;13961;51.178;4.448;2024-03-22T00:21:10;57.00;;;32.80;;
25948;SDS011;13961;51.178;4.448;2024-03-22T00:23:36;56.95;;;31.90;;
25948;SDS011;13961;51.178;4.448;2024-03-22T00:26:02;53.20;;;30.60;;
25948;SDS011;13961;51.178;4.448;2024-03-22T00:28:28;54.75;;;30.60;;
25948;SDS011;13961;51.178;4.448;2024-03-22T00:30:53;53.03;;;30.77;;
25948;SDS011;13961;51.178;4.448;2024-03-22T00:33:19;58.90;;;31.67;;
25948;SDS011;13961;51.178;4.448;2024-03-22T00:35:45;47.22;;;29.05;;
25948;SDS011;13961;51.178;4.448;2024-03-22T00:38:10;52.92;;;31.00;;
25948;SDS011;13961;51.178;4.448;2024-03-22T00:40:36;52.13;;;30.13;;
25948;SDS011;13961;51.178;4.448;2024-03-22T00:43:02;50.97;;;30.52;;
25948;SDS011;13961;51.178;4.448;2024-03-22T00:45:28;48.13;;;29.52;;
25948;SDS011;13961;51.178;4.448;2024-03-22T00:47:54;53.50;;;30.42;;
25948;SDS011;13961;51.178;4.448;2024-03-22T00:50:19;51.80;;;29.42;;
25948;SDS011;13961;51.178;4.448;2024-03-22T00:52:45;51.20;;;30.38;;
25948;SDS011;13961;51.178;4.448;2024-03-22T00:55:11;51.65;;;30.73;;
25948;SDS011;13961;51.178;4.448;2024-03-22T00:57:36;54.60;;;30.85;;
25948;SDS011;13961;51.178;4.448;2024-03-22T01:00:02;52.75;;;31.55;;
25948;SDS011;13961;51.178;4.448;2024-03-22T01:02:29;51.97;;;30.02;;
25948;SDS011;13961;51.178;4.448;2024-03-22T01:04:55;51.15;;;29.95;;
25948;SDS011;13961;51.178;4.448;2024-03-22T01:07:21;51.10;;;30.40;;
25948;SDS011;13961;51.178;4.448;2024-03-22T01:09:46;54.35;;;31.90;;
25948;SDS011;13961;51.178;4.448;2024-03-22T01:12:12;51.08;;;30.95;;
25948;SDS011;13961;51.178;4.448;2024-03-22T01:14:38;58.33;;;31.65;;
25948;SDS011;13961;51.178;4.448;2024-03-22T01:17:04;61.58;;;31.27;;
25948;SDS011;13961;51.178;4.448;2024-03-22T01:19:29;54.17;;;31.50;;
25948;SDS011;13961;51.178;4.448;2024-03-22T01:21:55;56.97;;;31.48;;
25948;SDS011;13961;51.178;4.448;2024-03-22T01:24:21;51.03;;;30.77;;
25948;SDS011;13961;51.178;4.448;2024-03-22T01:26:47;52.78;;;30.52;;
25948;SDS011;13961;51.178;4.448;2024-03-22T01:29:13;52.30;;;30.38;;
25948;SDS011;13961;51.178;4.448;2024-03-22T01:31:39;56.58;;;30.40;;
25948;SDS011;13961;51.178;4.448;2024-03-22T01:34:05;52.85;;;30.65;;
25948;SDS011;13961;51.178;4.448;2024-03-22T01:36:30;50.75;;;29.67;;
25948;SDS011;13961;51.178;4.448;2024-03-22T01:38:56;49.33;;;28.38;;
25948;SDS011;13961;51.178;4.448;2024-03-22T01:41:22;53.83;;;28.67;;
25948;SDS011;13961;51.178;4.448;2024-03-22T01:43:48;52.47;;;29.40;;
25948;SDS011;13961;51.178;4.448;2024-03-22T01:46:14;47.88;;;28.58;;
25948;SDS011;13961;51.178;4.448;2024-03-22T01:48:40;52.80;;;28.58;;
25948;SDS011;13961;51.178;4.448;2024-03-22T01:51:06;49.90;;;28.02;;
25948;SDS011;13961;51.178;4.448;2024-03-22T01:53:34;48.83;;;28.52;;
25948;SDS011;13961;51.178;4.448;2024-03-22T01:56:02;51.03;;;28.42;;
25948;SDS011;13961;51.178;4.448;2024-03-22T01:58:28;48.17;;;27.77;;
25948;SDS011;13961;51.178;4.448;2024-03-22T02:00:54;44.38;;;27.38;;
25948;SDS011;13961;51.178;4.448;2024-03-22T02:03:20;45.97;;;28.08;;
25948;SDS011;13961;51.178;4.448;2024-03-22T02:05:46;48.95;;;27.50;;
25948;SDS011;13961;51.178;4.448;2024-03-22T02:08:12;46.67;;;27.15;;
25948;SDS011;13961;51.178;4.448;2024-03-22T02:10:37;45.60;;;26.67;;
25948;SDS011;13961;51.178;4.448;2024-03-22T02:13:03;48.42;;;27.48;;
25948;SDS011;13961;51.178;4.448;2024-03-22T02:15:29;46.30;;;27.08;;
25948;SDS011;13961;51.178;4.448;2024-03-22T02:17:55;44.47;;;26.60;;
25948;SDS011;13961;51.178;4.448;2024-03-22T02:20:20;54.20;;;28.23;;
25948;SDS011;13961;51.178;4.448;2024-03-22T02:22:46;47.42;;;26.33;;
25948;SDS011;13961;51.178;4.448;2024-03-22T02:25:12;45.85;;;26.17;;
25948;SDS011;13961;51.178;4.448;2024-03-22T02:27:38;43.33;;;25.15;;
25948;SDS011;13961;51.178;4.448;2024-03-22T02:30:04;43.90;;;24.85;;
25948;SDS011;13961;51.178;4.448;2024-03-22T02:32:30;45.20;;;26.67;;
25948;SDS011;13961;51.178;4.448;2024-03-22T02:34:56;41.72;;;24.92;;
25948;SDS011;13961;51.178;4.448;2024-03-22T02:37:22;43.85;;;25.48;;
25948;SDS011;13961;51.178;4.448;2024-03-22T02:39:47;45.15;;;24.45;;
25948;SDS011;13961;51.178;4.448;2024-03-22T02:42:13;46.92;;;25.33;;
25948;SDS011;13961;51.178;4.448;2024-03-22T02:44:39;43.45;;;24.52;;
25948;SDS011;13961;51.178;4.448;2024-03-22T02:47:08;47.83;;;25.90;;
25948;SDS011;13961;51.178;4.448;2024-03-22T02:49:35;43.20;;;23.90;;
25948;SDS011;13961;51.178;4.448;2024-03-22T02:52:01;44.65;;;24.80;;
25948;SDS011;13961;51.178;4.448;2024-03-22T02:54:27;42.05;;;24.13;;
25948;SDS011;13961;51.178;4.448;2024-03-22T02:56:52;45.58;;;23.80;;
25948;SDS011;13961;51.178;4.448;2024-03-22T02:59:18;39.85;;;23.15;;
25948;SDS011;13961;51.178;4.448;2024-03-22T03:01:44;39.50;;;23.30;;
25948;SDS011;13961;51.178;4.448;2024-03-22T03:04:10;41.03;;;22.85;;
25948;SDS011;13961;51.178;4.448;2024-03-22T03:06:35;40.25;;;22.55;;
25948;SDS011;13961;51.178;4.448;2024-03-22T03:09:02;42.95;;;22.67;;
25948;SDS011;13961;51.178;4.448;2024-03-22T03:11:32;39.30;;;21.92;;
25948;SDS011;13961;51.178;4.448;2024-03-22T03:13:58;38.28;;;21.63;;
25948;SDS011;13961;51.178;4.448;2024-03-22T03:16:24;39.42;;;22.23;;
25948;SDS011;13961;51.178;4.448;2024-03-22T03:18:49;38.95;;;21.98;;
25948;SDS011;13961;51.178;4.448;2024-03-22T03:21:15;35.55;;;21.67;;
25948;SDS011;13961;51.178;4.448;2024-03-22T03:23:41;42.33;;;22.45;;
25948;SDS011;13961;51.178;4.448;2024-03-22T03:26:06;37.30;;;21.58;;
25948;SDS011;13961;51.178;4.448;2024-03-22T03:28:32;40.95;;;21.50;;
25948;SDS011;13961;51.178;4.448;2024-03-22T03:30:58;40.65;;;22.70;;
25948;SDS011;13961;51.178;4.448;2024-03-22T03:33:24;41.92;;;21.85;;
25948;SDS011;13961;51.178;4.448;2024-03-22T03:35:50;41.17;;;21.73;;
25948;SDS011;13961;51.178;4.448;2024-03-22T03:38:15;43.67;;;22.23;;
25948;SDS011;13961;51.178;4.448;2024-03-22T03:40:41;38.78;;;21.50;;
25948;SDS011;13961;51.178;4.448;2024-03-22T03:43:07;36.88;;;20.77;;
25948;SDS011;13961;51.178;4.448;2024-03-22T03:45:35;38.22;;;21.20;;
25948;SDS011;13961;51.178;4.448;2024-03-22T03:48:02;38.28;;;20.55;;
25948;SDS011;13961;51.178;4.448;2024-03-22T03:50:28;40.22;;;20.55;;
25948;SDS011;13961;51.178;4.448;2024-03-22T03:52:54;39.17;;;20.63;;
25948;SDS011;13961;51.178;4.448;2024-03-22T03:55:19;37.42;;;20.08;;
25948;SDS011;13961;51.178;4.448;2024-03-22T03:57:46;37.83;;;20.92;;
25948;SDS011;13961;51.178;4.448;2024-03-22T04:00:11;37.72;;;19.98;;
25948;SDS011;13961;51.178;4.448;2024-03-22T04:02:37;34.85;;;20.52;;
25948;SDS011;13961;51.178;4.448;2024-03-22T04:05:03;38.65;;;20.77;;
25948;SDS011;13961;51.178;4.448;2024-03-22T04:07:29;38.72;;;20.27;;
25948;SDS011;13961;51.178;4.448;2024-03-22T04:09:55;37.00;;;19.35;;
25948;SDS011;13961;51.178;4.448;2024-03-22T04:12:20;36.30;;;19.50;;
25948;SDS011;13961;51.178;4.448;2024-03-22T04:14:46;33.92;;;18.98;;
25948;SDS011;13961;51.178;4.448;2024-03-22T04:17:12;32.25;;;18.05;;
25948;SDS011;13961;51.178;4.448;2024-03-22T04:19:38;31.30;;;17.67;;
25948;SDS011;13961;51.178;4.448;2024-03-22T04:22:03;34.40;;;18.45;;
25948;SDS011;13961;51.178;4.448;2024-03-22T04:24:29;30.13;;;16.73;;
25948;SDS011;13961;51.178;4.448;2024-03-22T04:26:55;29.20;;;16.65;;
25948;SDS011;13961;51.178;4.448;2024-03-22T04:29:20;31.23;;;17.17;;
25948;SDS011;13961;51.178;4.448;2024-03-22T04:31:46;31.50;;;16.83;;
25948;SDS011;13961;51.178;4.448;2024-03-22T04:34:12;28.33;;;16.90;;
25948;SDS011;13961;51.178;4.448;2024-03-22T04:36:37;28.60;;;17.55;;
25948;SDS011;13961;51.178;4.448;2024-03-22T04:39:03;31.35;;;17.35;;
25948;SDS011;13961;51.178;4.448;2024-03-22T04:41:29;28.50;;;16.42;;
25948;SDS011;13961;51.178;4.448;2024-03-22T04:43:54;28.27;;;16.13;;
25948;SDS011;13961;51.178;4.448;2024-03-22T04:46:20;27.30;;;16.30;;
25948;SDS011;13961;51.178;4.448;2024-03-22T04:48:46;28.25;;;15.75;;
25948;SDS011;13961;51.178;4.448;2024-03-22T04:51:12;26.27;;;15.52;;
25948;SDS011;13961;51.178;4.448;2024-03-22T04:53:38;28.48;;;16.08;;
25948;SDS011;13961;51.178;4.448;2024-03-22T04:56:04;29.20;;;16.42;;
25948;SDS011;13961;51.178;4.448;2024-03-22T04:58:30;28.40;;;15.95;;
25948;SDS011;13961;51.178;4.448;2024-03-22T05:00:56;24.55;;;15.00;;
25948;SDS011;13961;51.178;4.448;2024-03-22T05:03:23;24.63;;;14.85;;
25948;SDS011;13961;51.178;4.448;2024-03-22T05:05:49;25.05;;;15.00;;
25948;SDS011;13961;51.178;4.448;2024-03-22T05:08:15;23.77;;;14.27;;
25948;SDS011;13961;51.178;4.448;2024-03-22T05:10:42;28.70;;;15.27;;
25948;SDS011;13961;51.178;4.448;2024-03-22T05:13:07;28.13;;;14.32;;
25948;SDS011;13961;51.178;4.448;2024-03-22T05:15:33;25.63;;;14.55;;
25948;SDS011;13961;51.178;4.448;2024-03-22T05:17:59;23.13;;;13.57;;
25948;SDS011;13961;51.178;4.448;2024-03-22T05:20:25;24.77;;;14.43;;
25948;SDS011;13961;51.178;4.448;2024-03-22T05:22:51;23.17;;;13.82;;
25948;SDS011;13961;51.178;4.448;2024-03-22T05:25:17;23.80;;;14.75;;
25948;SDS011;13961;51.178;4.448;2024-03-22T05:27:43;26.92;;;15.43;;
25948;SDS011;13961;51.178;4.448;2024-03-22T05:30:10;26.45;;;14.95;;
25948;SDS011;13961;51.178;4.448;2024-03-22T05:32:37;26.58;;;15.07;;
25948;SDS011;13961;51.178;4.448;2024-03-22T05:35:03;26.42;;;15.02;;
25948;SDS011;13961;51.178;4.448;2024-03-22T05:37:29;23.35;;;14.60;;
25948;SDS011;13961;51.178;4.448;2024-03-22T05:39:55;24.48;;;14.68;;
25948;SDS011;13961;51.178;4.448;2024-03-22T05:42:21;24.52;;;14.65;;
25948;SDS011;13961;51.178;4.448;2024-03-22T05:44:47;22.13;;;13.55;;
25948;SDS011;13961;51.178;4.448;2024-03-22T05:47:13;28.55;;;14.88;;
25948;SDS011;13961;51.178;4.448;2024-03-22T05:49:39;24.55;;;13.38;;
25948;SDS011;13961;51.178;4.448;2024-03-22T05:52:05;22.63;;;12.38;;
25948;SDS011;13961;51.178;4.448;2024-03-22T05:54:31;24.17;;;14.18;;
25948;SDS011;13961;51.178;4.448;2024-03-22T05:56:56;22.02;;;13.10;;
25948;SDS011;13961;51.178;4.448;2024-03-22T05:59:22;27.60;;;14.63;;
25948;SDS011;13961;51.178;4.448;2024-03-22T06:01:48;23.48;;;13.68;;
25948;SDS011;13961;51.178;4.448;2024-03-22T06:04:13;24.42;;;13.70;;
25948;SDS011;13961;51.178;4.448;2024-03-22T06:06:41;24.30;;;13.13;;
25948;SDS011;13961;51.178;4.448;2024-03-22T06:09:07;22.45;;;13.05;;
25948;SDS011;13961;51.178;4.448;2024-03-22T06:11:36;23.73;;;13.18;;
25948;SDS011;13961;51.178;4.448;2024-03-22T06:14:02;22.33;;;13.15;;
25948;SDS011;13961;51.178;4.448;2024-03-22T06:16:28;24.30;;;13.02;;
25948;SDS011;13961;51.178;4.448;2024-03-22T06:18:53;23.35;;;13.05;;
25948;SDS011;13961;51.178;4.448;2024-03-22T06:21:19;23.95;;;13.75;;
25948;SDS011;13961;51.178;4.448;2024-03-22T06:23:50;24.80;;;13.38;;
25948;SDS011;13961;51.178;4.448;2024-03-22T06:26:17;20.60;;;12.77;;
25948;SDS011;13961;51.178;4.448;2024-03-22T06:28:43;21.60;;;12.90;;
25948;SDS011;13961;51.178;4.448;2024-03-22T06:31:09;24.23;;;13.50;;
25948;SDS011;13961;51.178;4.448;2024-03-22T06:33:34;20.98;;;12.95;;
25948;SDS011;13961;51.178;4.448;2024-03-22T06:36:00;21.10;;;12.73;;
25948;SDS011;13961;51.178;4.448;2024-03-22T06:38:28;20.55;;;12.23;;
25948;SDS011;13961;51.178;4.448;2024-03-22T06:40:54;22.25;;;13.70;;
25948;SDS011;13961;51.178;4.448;2024-03-22T06:43:20;23.23;;;12.55;;
25948;SDS011;13961;51.178;4.448;2024-03-22T06:45:46;19.55;;;12.05;;
25948;SDS011;13961;51.178;4.448;2024-03-22T06:48:12;20.20;;;11.48;;
25948;SDS011;13961;51.178;4.448;2024-03-22T06:50:40;19.48;;;10.65;;
25948;SDS011;13961;51.178;4.448;2024-03-22T06:53:06;19.55;;;10.90;;
25948;SDS011;13961;51.178;4.448;2024-03-22T06:55:32;19.95;;;11.40;;
25948;SDS011;13961;51.178;4.448;2024-03-22T06:57:58;19.95;;;11.43;;
25948;SDS011;13961;51.178;4.448;2024-03-22T07:00:23;18.17;;;10.80;;
25948;SDS011;13961;51.178;4.448;2024-03-22T07:02:49;16.80;;;10.57;;
25948;SDS011;13961;51.178;4.448;2024-03-22T07:05:15;19.48;;;11.20;;
25948;SDS011;13961;51.178;4.448;2024-03-22T07:07:40;18.17;;;10.55;;
25948;SDS011;13961;51.178;4.448;2024-03-22T07:10:06;14.77;;;9.32;;
25948;SDS011;13961;51.178;4.448;2024-03-22T07:12:32;13.93;;;8.80;;
25948;SDS011;13961;51.178;4.448;2024-03-22T07:15:01;13.13;;;7.55;;
25948;SDS011;13961;51.178;4.448;2024-03-22T07:17:28;12.57;;;7.78;;
25948;SDS011;13961;51.178;4.448;2024-03-22T07:19:54;12.07;;;7.78;;
25948;SDS011;13961;51.178;4.448;2024-03-22T07:22:21;11.20;;;7.13;;
25948;SDS011;13961;51.178;4.448;2024-03-22T07:24:47;13.70;;;7.30;;
25948;SDS011;13961;51.178;4.448;2024-03-22T07:27:14;12.52;;;7.60;;
25948;SDS011;13961;51.178;4.448;2024-03-22T07:29:40;11.88;;;7.30;;
25948;SDS011;13961;51.178;4.448;2024-03-22T07:32:06;11.77;;;7.18;;
25948;SDS011;13961;51.178;4.448;2024-03-22T07:34:32;11.18;;;7.65;;
25948;SDS011;13961;51.178;4.448;2024-03-22T07:36:58;10.25;;;7.60;;
25948;SDS011;13961;51.178;4.448;2024-03-22T07:39:23;11.27;;;7.60;;
25948;SDS011;13961;51.178;4.448;2024-03-22T07:41:50;10.20;;;7.30;;
25948;SDS011;13961;51.178;4.448;2024-03-22T07:44:16;13.57;;;7.47;;
25948;SDS011;13961;51.178;4.448;2024-03-22T07:46:52;11.15;;;7.32;;
25948;SDS011;13961;51.178;4.448;2024-03-22T07:49:17;12.02;;;7.18;;
25948;SDS011;13961;51.178;4.448;2024-03-22T07:51:43;10.70;;;7.10;;
25948;SDS011;13961;51.178;4.448;2024-03-22T07:54:09;10.02;;;7.13;;
25948;SDS011;13961;51.178;4.448;2024-03-22T07:56:35;9.60;;;6.85;;
25948;SDS011;13961;51.178;4.448;2024-03-22T07:59:00;12.18;;;6.97;;
25948;SDS011;13961;51.178;4.448;2024-03-22T08:01:26;12.20;;;7.50;;
25948;SDS011;13961;51.178;4.448;2024-03-22T08:03:52;10.70;;;7.65;;
25948;SDS011;13961;51.178;4.448;2024-03-22T08:06:18;14.75;;;7.28;;
25948;SDS011;13961;51.178;4.448;2024-03-22T08:08:44;11.63;;;7.57;;
25948;SDS011;13961;51.178;4.448;2024-03-22T08:11:10;9.75;;;7.20;;
25948;SDS011;13961;51.178;4.448;2024-03-22T08:13:35;11.98;;;7.53;;
25948;SDS011;13961;51.178;4.448;2024-03-22T08:16:01;11.55;;;7.25;;
25948;SDS011;13961;51.178;4.448;2024-03-22T08:18:27;12.32;;;7.07;;
25948;SDS011;13961;51.178;4.448;2024-03-22T08:20:54;10.82;;;7.35;;
25948;SDS011;13961;51.178;4.448;2024-03-22T08:23:20;11.82;;;7.90;;
25948;SDS011;13961;51.178;4.448;2024-03-22T08:25:47;13.75;;;7.40;;
25948;SDS011;13961;51.178;4.448;2024-03-22T08:28:13;11.40;;;7.13;;
25948;SDS011;13961;51.178;4.448;2024-03-22T08:30:40;11.95;;;7.60;;
25948;SDS011;13961;51.178;4.448;2024-03-22T08:33:07;12.27;;;7.32;;
25948;SDS011;13961;51.178;4.448;2024-03-22T08:35:33;10.85;;;7.53;;
25948;SDS011;13961;51.178;4.448;2024-03-22T08:37:59;14.40;;;7.22;;
25948;SDS011;13961;51.178;4.448;2024-03-22T08:40:24;10.45;;;7.10;;
25948;SDS011;13961;51.178;4.448;2024-03-22T08:42:50;9.68;;;6.95;;
25948;SDS011;13961;51.178;4.448;2024-03-22T08:45:16;12.95;;;7.32;;
25948;SDS011;13961;51.178;4.448;2024-03-22T08:47:42;10.32;;;6.88;;
25948;SDS011;13961;51.178;4.448;2024-03-22T08:50:10;13.38;;;7.60;;
25948;SDS011;13961;51.178;4.448;2024-03-22T08:52:36;12.63;;;7.30;;
25948;SDS011;13961;51.178;4.448;2024-03-22T08:55:03;12.10;;;7.13;;
25948;SDS011;13961;51.178;4.448;2024-03-22T08:57:31;12.98;;;7.97;;
25948;SDS011;13961;51.178;4.448;2024-03-22T08:59:57;11.32;;;7.30;;
25948;SDS011;13961;51.178;4.448;2024-03-22T09:02:23;10.00;;;6.80;;
25948;SDS011;13961;51.178;4.448;2024-03-22T09:04:49;10.13;;;7.25;;
25948;SDS011;13961;51.178;4.448;2024-03-22T09:07:14;11.75;;;7.43;;
25948;SDS011;13961;51.178;4.448;2024-03-22T09:09:40;10.95;;;7.00;;
25948;SDS011;13961;51.178;4.448;2024-03-22T09:12:06;11.88;;;6.97;;
25948;SDS011;13961;51.178;4.448;2024-03-22T09:14:32;12.57;;;7.30;;
25948;SDS011;13961;51.178;4.448;2024-03-22T09:16:58;11.80;;;7.50;;
25948;SDS011;13961;51.178;4.448;2024-03-22T09:19:24;14.75;;;7.35;;
25948;SDS011;13961;51.178;4.448;2024-03-22T09:21:50;13.77;;;7.90;;
25948;SDS011;13961;51.178;4.448;2024-03-22T09:24:15;11.90;;;7.32;;
25948;SDS011;13961;51.178;4.448;2024-03-22T09:26:41;14.57;;;7.43;;
25948;SDS011;13961;51.178;4.448;2024-03-22T09:29:07;17.60;;;7.85;;
25948;SDS011;13961;51.178;4.448;2024-03-22T09:31:33;15.48;;;7.85;;
25948;SDS011;13961;51.178;4.448;2024-03-22T09:33:59;12.90;;;7.78;;
25948;SDS011;13961;51.178;4.448;2024-03-22T09:36:24;15.30;;;7.65;;
25948;SDS011;13961;51.178;4.448;2024-03-22T09:38:50;13.15;;;7.93;;
25948;SDS011;13961;51.178;4.448;2024-03-22T09:41:17;16.98;;;7.57;;
25948;SDS011;13961;51.178;4.448;2024-03-22T09:43:51;12.25;;;7.25;;
25948;SDS011;13961;51.178;4.448;2024-03-22T09:46:20;12.48;;;7.35;;
25948;SDS011;13961;51.178;4.448;2024-03-22T09:48:49;15.20;;;7.53;;
25948;SDS011;13961;51.178;4.448;2024-03-22T09:51:16;12.45;;;7.95;;
25948;SDS011;13961;51.178;4.448;2024-03-22T09:53:45;14.80;;;7.88;;
25948;SDS011;13961;51.178;4.448;2024-03-22T09:56:14;13.95;;;7.03;;
25948;SDS011;13961;51.178;4.448;2024-03-22T09:58:41;12.23;;;7.78;;
25948;SDS011;13961;51.178;4.448;2024-03-22T10:01:07;12.60;;;7.72;;
25948;SDS011;13961;51.178;4.448;2024-03-22T10:03:33;16.08;;;7.88;;
25948;SDS011;13961;51.178;4.448;2024-03-22T10:05:59;15.90;;;7.63;;
25948;SDS011;13961;51.178;4.448;2024-03-22T10:08:25;13.65;;;7.25;;
25948;SDS011;13961;51.178;4.448;2024-03-22T10:10:51;16.80;;;7.50;;
25948;SDS011;13961;51.178;4.448;2024-03-22T10:13:16;11.88;;;6.90;;
25948;SDS011;13961;51.178;4.448;2024-03-22T10:15:42;14.48;;;7.60;;
25948;SDS011;13961;51.178;4.448;2024-03-22T10:18:09;12.30;;;7.43;;
25948;SDS011;13961;51.178;4.448;2024-03-22T10:20:35;16.20;;;7.93;;
25948;SDS011;13961;51.178;4.448;2024-03-22T10:23:01;13.32;;;7.10;;
25948;SDS011;13961;51.178;4.448;2024-03-22T10:25:27;15.77;;;7.38;;
25948;SDS011;13961;51.178;4.448;2024-03-22T10:27:56;12.80;;;7.13;;
25948;SDS011;13961;51.178;4.448;2024-03-22T10:30:24;13.40;;;7.50;;
25948;SDS011;13961;51.178;4.448;2024-03-22T10:32:50;16.23;;;7.60;;
25948;SDS011;13961;51.178;4.448;2024-03-22T10:35:16;16.40;;;7.72;;
25948;SDS011;13961;51.178;4.448;2024-03-22T10:37:42;12.77;;;7.03;;
25948;SDS011;13961;51.178;4.448;2024-03-22T10:40:08;14.13;;;7.00;;
25948;SDS011;13961;51.178;4.448;2024-03-22T10:42:35;13.48;;;7.38;;
25948;SDS011;13961;51.178;4.448;2024-03-22T10:45:02;12.85;;;7.72;;
25948;SDS011;13961;51.178;4.448;2024-03-22T10:47:29;16.83;;;7.80;;
25948;SDS011;13961;51.178;4.448;2024-03-22T10:50:17;20.83;;;7.90;;
25948;SDS011;13961;51.178;4.448;2024-03-22T10:52:47;15.98;;;7.80;;
25948;SDS011;13961;51.178;4.448;2024-03-22T10:55:21;16.73;;;8.02;;
25948;SDS011;13961;51.178;4.448;2024-03-22T10:57:53;17.33;;;7.65;;
25948;SDS011;13961;51.178;4.448;2024-03-22T11:00:26;18.73;;;8.07;;
25948;SDS011;13961;51.178;4.448;2024-03-22T11:02:53;20.65;;;8.55;;
25948;SDS011;13961;51.178;4.448;2024-03-22T11:05:19;19.80;;;9.13;;
25948;SDS011;13961;51.178;4.448;2024-03-22T11:07:45;19.67;;;9.30;;
25948;SDS011;13961;51.178;4.448;2024-03-22T11:10:14;16.15;;;9.27;;
25948;SDS011;13961;51.178;4.448;2024-03-22T11:12:41;19.15;;;9.38;;
25948;SDS011;13961;51.178;4.448;2024-03-22T11:15:08;19.30;;;9.85;;
25948;SDS011;13961;51.178;4.448;2024-03-22T11:17:37;18.02;;;8.60;;
25948;SDS011;13961;51.178;4.448;2024-03-22T11:20:03;18.83;;;9.20;;
25948;SDS011;13961;51.178;4.448;2024-03-22T11:22:31;21.38;;;9.95;;
25948;SDS011;13961;51.178;4.448;2024-03-22T11:24:56;21.65;;;9.20;;
25948;SDS011;13961;51.178;4.448;2024-03-22T11:27:23;19.63;;;9.60;;
25948;SDS011;13961;51.178;4.448;2024-03-22T11:29:48;17.35;;;9.63;;
25948;SDS011;13961;51.178;4.448;2024-03-22T11:32:16;17.50;;;9.52;;
25948;SDS011;13961;51.178;4.448;2024-03-22T11:34:42;18.42;;;9.50;;
25948;SDS011;13961;51.178;4.448;2024-03-22T11:37:09;17.67;;;9.32;;
25948;SDS011;13961;51.178;4.448;2024-03-22T11:39:38;17.20;;;9.77;;
25948;SDS011;13961;51.178;4.448;2024-03-22T11:42:05;20.35;;;9.18;;
25948;SDS011;13961;51.178;4.448;2024-03-22T11:44:32;16.77;;;9.82;;
25948;SDS011;13961;51.178;4.448;2024-03-22T11:47:00;17.30;;;9.57;;
25948;SDS011;13961;51.178;4.448;2024-03-22T11:49:25;18.35;;;8.77;;
25948;SDS011;13961;51.178;4.448;2024-03-22T11:51:52;15.95;;;9.07;;
25948;SDS011;13961;51.178;4.448;2024-03-22T11:54:20;16.55;;;9.10;;
25948;SDS011;13961;51.178;4.448;2024-03-22T11:56:46;15.35;;;8.85;;
25948;SDS011;13961;51.178;4.448;2024-03-22T11:59:12;20.27;;;9.50;;
25948;SDS011;13961;51.178;4.448;2024-03-22T12:01:38;15.23;;;8.38;;
25948;SDS011;13961;51.178;4.448;2024-03-22T12:04:05;15.30;;;9.70;;
25948;SDS011;13961;51.178;4.448;2024-03-22T12:06:35;14.90;;;8.85;;
25948;SDS011;13961;51.178;4.448;2024-03-22T12:09:01;18.75;;;9.50;;
25948;SDS011;13961;51.178;4.448;2024-03-22T12:11:28;17.88;;;9.05;;
25948;SDS011;13961;51.178;4.448;2024-03-22T12:13:54;16.58;;;8.60;;
25948;SDS011;13961;51.178;4.448;2024-03-22T12:16:20;15.10;;;8.10;;
25948;SDS011;13961;51.178;4.448;2024-03-22T12:18:45;18.88;;;8.45;;
25948;SDS011;13961;51.178;4.448;2024-03-22T12:21:11;16.23;;;8.23;;
25948;SDS011;13961;51.178;4.448;2024-03-22T12:23:37;15.73;;;8.30;;
25948;SDS011;13961;51.178;4.448;2024-03-22T12:26:02;17.30;;;7.63;;
25948;SDS011;13961;51.178;4.448;2024-03-22T12:28:28;16.60;;;7.85;;
25948;SDS011;13961;51.178;4.448;2024-03-22T12:30:54;15.88;;;8.32;;
25948;SDS011;13961;51.178;4.448;2024-03-22T12:33:20;16.77;;;8.23;;
25948;SDS011;13961;51.178;4.448;2024-03-22T12:35:46;16.67;;;8.75;;
25948;SDS011;13961;51.178;4.448;2024-03-22T12:38:13;16.35;;;8.40;;
25948;SDS011;13961;51.178;4.448;2024-03-22T12:40:39;18.88;;;9.32;;
25948;SDS011;13961;51.178;4.448;2024-03-22T12:43:08;18.13;;;8.57;;
25948;SDS011;13961;51.178;4.448;2024-03-22T12:45:34;15.57;;;8.63;;
25948;SDS011;13961;51.178;4.448;2024-03-22T12:48:00;15.57;;;8.88;;
25948;SDS011;13961;51.178;4.448;2024-03-22T12:50:26;16.25;;;8.15;;
25948;SDS011;13961;51.178;4.448;2024-03-22T12:52:52;11.43;;;7.65;;
25948;SDS011;13961;51.178;4.448;2024-03-22T12:55:18;15.38;;;8.80;;
25948;SDS011;13961;51.178;4.448;2024-03-22T12:57:44;16.67;;;8.23;;
25948;SDS011;13961;51.178;4.448;2024-03-22T13:00:10;15.43;;;8.75;;
25948;SDS011;13961;51.178;4.448;2024-03-22T13:02:43;18.55;;;8.68;;
25948;SDS011;13961;51.178;4.448;2024-03-22T13:05:12;18.88;;;9.30;;
25948;SDS011;13961;51.178;4.448;2024-03-22T13:07:38;16.00;;;9.13;;
25948;SDS011;13961;51.178;4.448;2024-03-22T13:10:04;20.27;;;9.52;;
25948;SDS011;13961;51.178;4.448;2024-03-22T13:12:30;19.38;;;9.60;;
25948;SDS011;13961;51.178;4.448;2024-03-22T13:14:56;24.48;;;9.77;;
25948;SDS011;13961;51.178;4.448;2024-03-22T13:17:23;21.23;;;10.23;;
25948;SDS011;13961;51.178;4.448;2024-03-22T13:19:49;19.00;;;10.63;;
25948;SDS011;13961;51.178;4.448;2024-03-22T13:22:14;23.98;;;11.30;;
25948;SDS011;13961;51.178;4.448;2024-03-22T13:24:43;22.42;;;11.32;;
25948;SDS011;13961;51.178;4.448;2024-03-22T13:27:10;19.58;;;11.70;;
25948;SDS011;13961;51.178;4.448;2024-03-22T13:29:37;22.83;;;12.85;;
25948;SDS011;13961;51.178;4.448;2024-03-22T13:32:03;25.83;;;13.43;;
25948;SDS011;13961;51.178;4.448;2024-03-22T13:34:32;21.83;;;13.65;;
25948;SDS011;13961;51.178;4.448;2024-03-22T13:37:01;23.55;;;13.25;;
25948;SDS011;13961;51.178;4.448;2024-03-22T13:39:27;24.55;;;14.40;;
25948;SDS011;13961;51.178;4.448;2024-03-22T13:41:56;21.55;;;14.07;;
25948;SDS011;13961;51.178;4.448;2024-03-22T13:44:22;26.50;;;14.95;;
25948;SDS011;13961;51.178;4.448;2024-03-22T13:46:51;25.02;;;14.85;;
25948;SDS011;13961;51.178;4.448;2024-03-22T13:49:17;22.83;;;14.63;;
25948;SDS011;13961;51.178;4.448;2024-03-22T13:51:46;29.13;;;14.68;;
25948;SDS011;13961;51.178;4.448;2024-03-22T13:54:13;26.75;;;14.45;;
25948;SDS011;13961;51.178;4.448;2024-03-22T13:56:39;22.23;;;14.57;;
25948;SDS011;13961;51.178;4.448;2024-03-22T13:59:05;24.45;;;14.50;;
25948;SDS011;13961;51.178;4.448;2024-03-22T14:01:37;26.77;;;15.10;;
25948;SDS011;13961;51.178;4.448;2024-03-22T14:04:03;24.37;;;14.63;;
25948;SDS011;13961;51.178;4.448;2024-03-22T14:06:30;21.60;;;13.82;;
25948;SDS011;13961;51.178;4.448;2024-03-22T14:08:57;22.52;;;14.00;;
25948;SDS011;13961;51.178;4.448;2024-03-22T14:11:26;21.08;;;14.48;;
25948;SDS011;13961;51.178;4.448;2024-03-22T14:13:52;22.00;;;14.32;;
25948;SDS011;13961;51.178;4.448;2024-03-22T14:16:18;20.08;;;13.73;;
25948;SDS011;13961;51.178;4.448;2024-03-22T14:18:44;18.80;;;13.38;;
25948;SDS011;13961;51.178;4.448;2024-03-22T14:21:09;19.02;;;11.77;;